Time;durP1;ratioP1;P1;durP2;ratioP2;P2;SDS_P1;SDS_P2;PMS_P1;PMS_P2;Temp;Humidity;BMP_temperature;BMP_pressure;BME280_temperature;BME280_humidity;BME280_pressure;Samples;Min_cycle;Max_cycle;Signal;HPM_P1;HPM_P2
2022/04/24 00:02:17;;;;;;;48.05;31.45;;;;;;;;;;7299498;19;140622;-77
2022/04/24 00:04:45;;;;;;;46.38;31.52;;;;;;;;;;7298554;19;140946;-77
2022/04/24 00:07:12;;;;;;;46.13;30.77;;;;;;;;;;7299348;19;141278;-78
2022/04/24 00:09:39;;;;;;;45.65;30.45;;;;;;;;;;7296569;19;142572;-78
2022/04/24 00:12:07;;;;;;;43.20;30.27;;;;;;;;;;7297786;19;141050;-77
2022/04/24 00:14:34;;;;;;;44.05;29.55;;;;;;;;;;7300157;19;140499;-77
2022/04/24 00:17:02;;;;;;;44.17;29.30;;;;;;;;;;7301510;19;141023;-77
2022/04/24 00:19:30;;;;;;;43.13;29.75;;;;;;;;;;7313569;19;140828;-77
2022/04/24 00:21:57;;;;;;;43.42;29.63;;;;;;;;;;7305576;19;140695;-77
2022/04/24 00:24:25;;;;;;;42.00;28.33;;;;;;;;;;7301528;19;141577;-77
2022/04/24 00:26:54;;;;;;;40.72;27.38;;;;;;;;;;7299083;19;141704;-76
2022/04/24 00:29:21;;;;;;;41.20;28.40;;;;;;;;;;7297442;19;141325;-77
2022/04/24 00:31:48;;;;;;;41.30;28.70;;;;;;;;;;7298470;19;140838;-78
2022/04/24 00:34:15;;;;;;;40.70;28.27;;;;;;;;;;7296936;19;141534;-78
2022/04/24 00:36:44;;;;;;;40.20;27.27;;;;;;;;;;7298472;19;141302;-78
2022/04/24 00:39:12;;;;;;;38.47;26.38;;;;;;;;;;7298327;19;141480;-78
2022/04/24 00:41:50;;;;;;;40.03;26.80;;;;;;;;;;7297989;19;140550;-78
2022/04/24 00:44:18;;;;;;;37.80;25.90;;;;;;;;;;7297796;19;140583;-78
2022/04/24 00:46:53;;;;;;;36.20;26.33;;;;;;;;;;7298702;19;141224;-77
2022/04/24 00:49:21;;;;;;;36.83;25.93;;;;;;;;;;7298363;19;142574;-77
2022/04/24 00:51:48;;;;;;;38.53;26.13;;;;;;;;;;7297845;19;140754;-77
2022/04/24 00:54:15;;;;;;;37.27;25.70;;;;;;;;;;7298330;19;141180;-77
2022/04/24 00:56:43;;;;;;;34.30;24.57;;;;;;;;;;7297809;19;142510;-77
2022/04/24 00:59:12;;;;;;;36.97;25.65;;;;;;;;;;7294117;19;141888;-77
2022/04/24 01:01:40;;;;;;;34.22;24.48;;;;;;;;;;7298679;19;140629;-77
2022/04/24 01:04:10;;;;;;;36.87;25.37;;;;;;;;;;7296463;19;141432;-77
2022/04/24 01:06:40;;;;;;;34.80;24.47;;;;;;;;;;7297151;19;141409;-77
2022/04/24 01:09:20;;;;;;;33.57;24.03;;;;;;;;;;7296101;19;140927;-77
2022/04/24 01:11:52;;;;;;;34.50;23.83;;;;;;;;;;7296106;19;141655;-78
2022/04/24 01:14:21;;;;;;;32.17;23.13;;;;;;;;;;7297975;19;141581;-78
2022/04/24 01:16:49;;;;;;;32.05;22.40;;;;;;;;;;7297737;19;140800;-78
2022/04/24 01:19:17;;;;;;;31.30;22.50;;;;;;;;;;7295754;19;141326;-77
2022/04/24 01:21:45;;;;;;;32.55;22.98;;;;;;;;;;7296397;19;140690;-77
2022/04/24 01:24:14;;;;;;;30.83;22.45;;;;;;;;;;7297608;19;140710;-78
2022/04/24 01:26:41;;;;;;;30.83;22.67;;;;;;;;;;7295973;19;141302;-77
2022/04/24 01:29:11;;;;;;;31.73;22.85;;;;;;;;;;7296799;19;143647;-77
2022/04/24 01:31:39;;;;;;;29.93;22.03;;;;;;;;;;7296941;19;140584;-78
2022/04/24 01:34:06;;;;;;;29.37;21.87;;;;;;;;;;7297299;19;141235;-78
2022/04/24 01:36:33;;;;;;;29.55;21.73;;;;;;;;;;7296896;19;142203;-78
2022/04/24 01:39:00;;;;;;;30.00;21.80;;;;;;;;;;7296393;19;141751;-77
2022/04/24 01:41:28;;;;;;;29.05;21.25;;;;;;;;;;7294214;19;140946;-77
2022/04/24 01:43:55;;;;;;;30.05;21.60;;;;;;;;;;7297071;19;141465;-78
2022/04/24 01:46:22;;;;;;;29.35;21.42;;;;;;;;;;7296332;19;141402;-77
2022/04/24 01:48:49;;;;;;;29.35;21.70;;;;;;;;;;7296102;19;141231;-78
2022/04/24 01:51:16;;;;;;;27.35;19.60;;;;;;;;;;7296292;19;140803;-77
2022/04/24 01:53:44;;;;;;;27.00;20.20;;;;;;;;;;7293670;19;140809;-79
2022/04/24 01:56:12;;;;;;;28.73;20.20;;;;;;;;;;7293703;19;141305;-78
2022/04/24 01:58:40;;;;;;;28.52;20.65;;;;;;;;;;7295520;19;141898;-78
2022/04/24 02:01:07;;;;;;;27.03;19.87;;;;;;;;;;7294578;19;140952;-79
2022/04/24 02:03:35;;;;;;;27.40;20.40;;;;;;;;;;7296135;19;140558;-77
2022/04/24 02:06:04;;;;;;;26.13;19.45;;;;;;;;;;7295752;19;141968;-77
2022/04/24 02:08:34;;;;;;;26.10;19.90;;;;;;;;;;7295572;19;143612;-77
2022/04/24 02:11:06;;;;;;;26.13;19.27;;;;;;;;;;7295520;19;140984;-77
2022/04/24 02:13:33;;;;;;;25.37;18.83;;;;;;;;;;7307064;19;140930;-77
2022/04/24 02:16:01;;;;;;;24.43;19.17;;;;;;;;;;7310182;19;141805;-77
2022/04/24 02:18:28;;;;;;;25.65;18.92;;;;;;;;;;7303382;19;141994;-77
2022/04/24 02:20:55;;;;;;;25.40;19.05;;;;;;;;;;7303572;19;140941;-77
2022/04/24 02:23:22;;;;;;;24.00;17.95;;;;;;;;;;7303084;19;140908;-77
2022/04/24 02:25:50;;;;;;;24.23;18.15;;;;;;;;;;7302413;19;141244;-77
2022/04/24 02:28:17;;;;;;;26.10;18.87;;;;;;;;;;7303082;19;141289;-77
2022/04/24 02:30:44;;;;;;;23.03;17.57;;;;;;;;;;7300638;19;141138;-76
2022/04/24 02:33:11;;;;;;;23.83;17.83;;;;;;;;;;7303140;19;140921;-77
2022/04/24 02:35:39;;;;;;;23.27;17.65;;;;;;;;;;7301897;19;141397;-77
2022/04/24 02:38:06;;;;;;;24.13;17.48;;;;;;;;;;7301426;19;142110;-77
2022/04/24 02:40:34;;;;;;;23.33;17.67;;;;;;;;;;7302239;19;140746;-77
2022/04/24 02:43:02;;;;;;;22.65;17.13;;;;;;;;;;7302780;19;141221;-77
2022/04/24 02:45:29;;;;;;;22.17;16.98;;;;;;;;;;7302427;19;140826;-77
2022/04/24 02:47:56;;;;;;;22.67;16.80;;;;;;;;;;7302296;19;142962;-77
2022/04/24 02:50:24;;;;;;;21.23;16.55;;;;;;;;;;7300901;19;140783;-77
2022/04/24 02:52:53;;;;;;;22.30;16.92;;;;;;;;;;7302031;19;140848;-78
2022/04/24 02:55:21;;;;;;;21.33;16.00;;;;;;;;;;7300499;19;142085;-77
2022/04/24 02:57:48;;;;;;;21.00;16.33;;;;;;;;;;7301207;19;141932;-77
2022/04/24 03:00:21;;;;;;;21.38;16.25;;;;;;;;;;7302468;19;141386;-77
2022/04/24 03:02:49;;;;;;;20.08;15.95;;;;;;;;;;7302279;19;140720;-77
2022/04/24 03:05:21;;;;;;;21.03;16.07;;;;;;;;;;7300635;19;140889;-77
2022/04/24 03:07:48;;;;;;;19.83;15.38;;;;;;;;;;7301282;19;142448;-77
2022/04/24 03:10:16;;;;;;;20.23;15.52;;;;;;;;;;7301864;19;140921;-77
2022/04/24 03:12:44;;;;;;;20.77;15.60;;;;;;;;;;7300593;19;140966;-77
2022/04/24 03:15:14;;;;;;;20.23;15.30;;;;;;;;;;7301251;19;141704;-77
2022/04/24 03:17:42;;;;;;;20.00;15.27;;;;;;;;;;7300791;19;140668;-77
2022/04/24 03:20:11;;;;;;;19.00;14.52;;;;;;;;;;7300761;19;140734;-78
2022/04/24 03:22:39;;;;;;;19.45;14.85;;;;;;;;;;7299942;19;140683;-78
2022/04/24 03:25:08;;;;;;;20.02;15.00;;;;;;;;;;7298901;19;141204;-78
2022/04/24 03:27:35;;;;;;;18.60;14.50;;;;;;;;;;7300844;19;141326;-77
2022/04/24 03:30:04;;;;;;;19.03;14.70;;;;;;;;;;7301401;19;140806;-78
2022/04/24 03:32:31;;;;;;;17.88;13.82;;;;;;;;;;7300292;19;140676;-78
2022/04/24 03:34:59;;;;;;;20.02;14.77;;;;;;;;;;7299983;19;141476;-77
2022/04/24 03:37:27;;;;;;;18.45;13.98;;;;;;;;;;7300819;19;143539;-78
2022/04/24 03:39:54;;;;;;;17.40;13.70;;;;;;;;;;7299195;19;140587;-78
2022/04/24 03:42:21;;;;;;;17.67;13.67;;;;;;;;;;7300163;19;141049;-78
2022/04/24 03:44:48;;;;;;;18.43;13.77;;;;;;;;;;7300427;19;140589;-78
2022/04/24 03:47:16;;;;;;;18.25;13.93;;;;;;;;;;7299484;19;143219;-78
2022/04/24 03:49:43;;;;;;;17.15;13.70;;;;;;;;;;7300658;19;141387;-77
2022/04/24 03:52:13;;;;;;;16.73;13.23;;;;;;;;;;7300063;19;140605;-78
2022/04/24 03:54:40;;;;;;;16.50;13.48;;;;;;;;;;7299374;19;141976;-77
2022/04/24 03:57:08;;;;;;;16.27;13.30;;;;;;;;;;7298875;19;141880;-77
2022/04/24 03:59:35;;;;;;;16.65;12.73;;;;;;;;;;7300101;19;140552;-77
2022/04/24 04:02:03;;;;;;;16.17;12.88;;;;;;;;;;7297965;19;140800;-78
2022/04/24 04:04:30;;;;;;;15.73;12.70;;;;;;;;;;7299411;19;140813;-78
2022/04/24 04:06:57;;;;;;;15.65;12.45;;;;;;;;;;7297663;19;142294;-75
2022/04/24 04:09:24;;;;;;;15.38;12.70;;;;;;;;;;7299765;19;140575;-77
2022/04/24 04:11:51;;;;;;;14.63;12.23;;;;;;;;;;7299213;19;140936;-78
2022/04/24 04:14:18;;;;;;;15.63;12.25;;;;;;;;;;7298344;19;141283;-77
2022/04/24 04:16:45;;;;;;;15.17;12.07;;;;;;;;;;7299514;19;141208;-77
2022/04/24 04:19:13;;;;;;;15.57;12.35;;;;;;;;;;7297585;19;140685;-77
2022/04/24 04:21:43;;;;;;;16.52;12.48;;;;;;;;;;7299577;19;140828;-77
2022/04/24 04:24:10;;;;;;;15.02;11.80;;;;;;;;;;7297508;19;141764;-77
2022/04/24 04:26:37;;;;;;;14.25;11.55;;;;;;;;;;7298277;19;142533;-77
2022/04/24 04:29:04;;;;;;;14.15;11.48;;;;;;;;;;7298623;19;140626;-77
2022/04/24 04:31:31;;;;;;;14.10;11.40;;;;;;;;;;7299835;19;140694;-77
2022/04/24 04:33:58;;;;;;;13.90;11.50;;;;;;;;;;7294237;19;141054;-77
2022/04/24 04:36:25;;;;;;;14.50;11.33;;;;;;;;;;7298771;19;141759;-77
2022/04/24 04:38:52;;;;;;;13.60;11.00;;;;;;;;;;7299045;19;141040;-77
2022/04/24 04:41:19;;;;;;;13.60;11.25;;;;;;;;;;7297795;19;140583;-77
2022/04/24 04:43:46;;;;;;;14.02;11.32;;;;;;;;;;7296381;19;140997;-77
2022/04/24 04:46:13;;;;;;;13.18;10.63;;;;;;;;;;7298691;19;142011;-77
2022/04/24 04:48:41;;;;;;;12.50;10.88;;;;;;;;;;7298663;19;140600;-77
2022/04/24 04:51:08;;;;;;;13.10;10.90;;;;;;;;;;7297922;19;140900;-77
2022/04/24 04:53:35;;;;;;;13.77;10.85;;;;;;;;;;7297543;19;141646;-77
2022/04/24 04:56:02;;;;;;;12.80;10.40;;;;;;;;;;7296936;19;140819;-77
2022/04/24 04:58:29;;;;;;;13.25;10.95;;;;;;;;;;7298656;19;140716;-77
2022/04/24 05:00:56;;;;;;;13.40;10.68;;;;;;;;;;7298135;19;140600;-77
2022/04/24 05:03:23;;;;;;;13.18;10.63;;;;;;;;;;7297767;19;140657;-76
2022/04/24 05:05:50;;;;;;;12.82;10.50;;;;;;;;;;7298174;19;143247;-76
2022/04/24 05:08:17;;;;;;;12.80;10.47;;;;;;;;;;7297671;19;140915;-77
2022/04/24 05:10:44;;;;;;;11.55;9.68;;;;;;;;;;7298001;19;141003;-76
2022/04/24 05:13:11;;;;;;;12.40;9.85;;;;;;;;;;7297165;19;141372;-77
2022/04/24 05:15:38;;;;;;;12.60;10.25;;;;;;;;;;7295374;19;142651;-77
2022/04/24 05:18:06;;;;;;;12.23;10.07;;;;;;;;;;7295783;19;140885;-77
2022/04/24 05:20:33;;;;;;;12.33;9.80;;;;;;;;;;7296891;19;141124;-77
2022/04/24 05:23:04;;;;;;;12.30;9.88;;;;;;;;;;7297010;19;141535;-78
2022/04/24 05:25:32;;;;;;;12.18;9.70;;;;;;;;;;7296390;19;143095;-77
2022/04/24 05:28:03;;;;;;;11.50;9.57;;;;;;;;;;7296900;19;141166;-77
2022/04/24 05:30:30;;;;;;;11.60;9.60;;;;;;;;;;7296170;19;141125;-78
2022/04/24 05:32:58;;;;;;;11.73;9.60;;;;;;;;;;7297063;19;141112;-78
2022/04/24 05:35:26;;;;;;;11.60;9.25;;;;;;;;;;7296487;19;141075;-78
2022/04/24 05:37:53;;;;;;;11.57;9.40;;;;;;;;;;7295913;19;140658;-77
2022/04/24 05:40:20;;;;;;;11.20;8.93;;;;;;;;;;7297063;19;140763;-77
2022/04/24 05:42:55;;;;;;;10.88;9.30;;;;;;;;;;7296239;19;140608;-77
2022/04/24 05:45:24;;;;;;;10.65;8.82;;;;;;;;;;7295226;19;141426;-78
2022/04/24 05:47:56;;;;;;;10.87;9.10;;;;;;;;;;7296041;19;141657;-78
2022/04/24 05:50:25;;;;;;;12.07;9.90;;;;;;;;;;7296838;19;140815;-79
2022/04/24 05:52:54;;;;;;;10.65;9.15;;;;;;;;;;7296291;19;141830;-77
2022/04/24 05:55:22;;;;;;;10.07;8.73;;;;;;;;;;7295708;19;142567;-77
2022/04/24 05:57:51;;;;;;;10.98;9.02;;;;;;;;;;7295757;19;140874;-78
2022/04/24 06:00:19;;;;;;;10.57;8.70;;;;;;;;;;7294217;19;141599;-77
2022/04/24 06:02:51;;;;;;;10.50;8.57;;;;;;;;;;7295698;19;141082;-77
2022/04/24 06:05:18;;;;;;;10.68;9.00;;;;;;;;;;7296076;19;142619;-77
2022/04/24 06:07:46;;;;;;;10.87;8.60;;;;;;;;;;7293946;19;140937;-77
2022/04/24 06:10:13;;;;;;;9.93;8.30;;;;;;;;;;7295922;19;140865;-78
2022/04/24 06:12:51;;;;;;;9.98;8.65;;;;;;;;;;7295020;19;141387;-78
2022/04/24 06:15:28;;;;;;;9.55;7.97;;;;;;;;;;7293978;19;140800;-77
2022/04/24 06:17:57;;;;;;;9.82;8.18;;;;;;;;;;7295731;19;140878;-77
2022/04/24 06:20:26;;;;;;;9.93;8.40;;;;;;;;;;7295405;19;140760;-77
2022/04/24 06:22:55;;;;;;;9.82;8.50;;;;;;;;;;7293632;19;141717;-77
2022/04/24 06:25:25;;;;;;;8.85;7.93;;;;;;;;;;7295791;19;141871;-77
2022/04/24 06:27:53;;;;;;;9.77;8.10;;;;;;;;;;7295285;19;140863;-77
2022/04/24 06:30:22;;;;;;;9.13;7.65;;;;;;;;;;7295335;19;140610;-77
2022/04/24 06:32:50;;;;;;;9.55;8.23;;;;;;;;;;7295207;19;141492;-77
2022/04/24 06:35:18;;;;;;;9.88;8.43;;;;;;;;;;7292855;19;142024;-77
2022/04/24 06:37:47;;;;;;;8.60;7.70;;;;;;;;;;7293809;19;141480;-78
2022/04/24 06:40:16;;;;;;;9.43;7.82;;;;;;;;;;7294813;19;140763;-77
2022/04/24 06:42:51;;;;;;;8.37;7.43;;;;;;;;;;7293074;19;141367;-77
2022/04/24 06:45:25;;;;;;;7.88;7.07;;;;;;;;;;7294638;19;142633;-77
2022/04/24 06:47:53;;;;;;;8.95;7.65;;;;;;;;;;7294741;19;140672;-78
2022/04/24 06:50:22;;;;;;;9.02;7.32;;;;;;;;;;7294688;19;140880;-78
2022/04/24 06:52:57;;;;;;;8.63;7.32;;;;;;;;;;7292740;19;141336;-76
2022/04/24 06:55:24;;;;;;;8.32;7.35;;;;;;;;;;7292426;19;141097;-76
2022/04/24 06:57:51;;;;;;;9.25;7.57;;;;;;;;;;7297471;19;141281;-76
2022/04/24 07:00:19;;;;;;;8.30;7.30;;;;;;;;;;7300741;19;141149;-76
2022/04/24 07:02:48;;;;;;;7.80;6.97;;;;;;;;;;7300914;19;141621;-76
2022/04/24 07:05:16;;;;;;;8.53;7.10;;;;;;;;;;7301777;19;142951;-75
2022/04/24 07:07:43;;;;;;;8.20;7.03;;;;;;;;;;7301630;19;140719;-76
2022/04/24 07:10:10;;;;;;;8.47;7.33;;;;;;;;;;7301263;19;140801;-77
2022/04/24 07:12:57;;;;;;;7.70;6.70;;;;;;;;;;7298654;19;141451;-76
2022/04/24 07:15:29;;;;;;;7.45;6.55;;;;;;;;;;7300955;19;142491;-76
2022/04/24 07:17:57;;;;;;;7.78;6.70;;;;;;;;;;7301699;19;140793;-76
2022/04/24 07:20:27;;;;;;;7.50;6.63;;;;;;;;;;7300438;19;141684;-76
2022/04/24 07:23:02;;;;;;;8.23;6.97;;;;;;;;;;7301027;19;141308;-76
2022/04/24 07:25:39;;;;;;;8.10;6.68;;;;;;;;;;7300823;19;141193;-76
2022/04/24 07:28:07;;;;;;;8.63;7.28;;;;;;;;;;7301234;19;140758;-76
2022/04/24 07:30:34;;;;;;;8.68;7.22;;;;;;;;;;7301190;19;140800;-76
2022/04/24 07:33:02;;;;;;;8.50;7.20;;;;;;;;;;7300792;19;141073;-76
2022/04/24 07:35:35;;;;;;;9.07;7.40;;;;;;;;;;7298741;19;140919;-76
2022/04/24 07:38:02;;;;;;;9.07;7.10;;;;;;;;;;7299221;19;140740;-76
2022/04/24 07:40:32;;;;;;;8.48;6.90;;;;;;;;;;7300647;19;140994;-76
2022/04/24 07:43:02;;;;;;;8.63;7.07;;;;;;;;;;7299743;19;141282;-76
2022/04/24 07:45:39;;;;;;;8.50;7.00;;;;;;;;;;7300416;19;141253;-76
2022/04/24 07:48:08;;;;;;;7.65;6.57;;;;;;;;;;7300531;19;141146;-77
2022/04/24 07:50:37;;;;;;;8.77;6.90;;;;;;;;;;7300235;19;140994;-77
2022/04/24 07:53:05;;;;;;;8.83;7.10;;;;;;;;;;7299390;19;140733;-76
2022/04/24 07:55:33;;;;;;;8.55;6.95;;;;;;;;;;7299337;19;141807;-76
2022/04/24 07:58:00;;;;;;;7.93;7.00;;;;;;;;;;7297414;19;140942;-76
2022/04/24 08:00:29;;;;;;;9.50;6.77;;;;;;;;;;7298269;19;141353;-76
2022/04/24 08:02:58;;;;;;;8.18;6.65;;;;;;;;;;7299537;19;141728;-76
2022/04/24 08:05:28;;;;;;;8.77;6.85;;;;;;;;;;7299458;19;142013;-76
2022/04/24 08:07:56;;;;;;;8.53;6.53;;;;;;;;;;7299036;19;140828;-75
2022/04/24 08:10:25;;;;;;;9.20;6.97;;;;;;;;;;7300068;19;140851;-75
2022/04/24 08:12:54;;;;;;;8.18;6.60;;;;;;;;;;7298761;19;140585;-76
2022/04/24 08:15:22;;;;;;;7.78;6.85;;;;;;;;;;7299156;19;142962;-75
2022/04/24 08:17:49;;;;;;;8.52;6.50;;;;;;;;;;7299957;19;140686;-76
2022/04/24 08:20:17;;;;;;;8.03;6.30;;;;;;;;;;7307799;19;140640;-76
2022/04/24 08:22:49;;;;;;;8.07;6.40;;;;;;;;;;7305313;19;140728;-75
2022/04/24 08:25:19;;;;;;;8.30;6.60;;;;;;;;;;7306924;19;142347;-75
2022/04/24 08:27:47;;;;;;;8.50;6.67;;;;;;;;;;7308403;19;141060;-76
2022/04/24 08:30:25;;;;;;;9.07;6.68;;;;;;;;;;7302410;19;140696;-80
2022/04/24 08:32:57;;;;;;;9.88;7.03;;;;;;;;;;7300320;19;141622;-82
2022/04/24 08:35:29;;;;;;;8.88;6.88;;;;;;;;;;7299712;19;140985;-78
2022/04/24 08:37:56;;;;;;;10.68;7.07;;;;;;;;;;7297482;19;140738;-82
2022/04/24 08:40:26;;;;;;;10.70;6.85;;;;;;;;;;7297464;19;140666;-76
2022/04/24 08:42:57;;;;;;;11.50;6.68;;;;;;;;;;7297000;19;140515;-82
2022/04/24 08:45:29;;;;;;;10.90;6.90;;;;;;;;;;7298255;19;140945;-83
2022/04/24 08:47:59;;;;;;;9.43;6.10;;;;;;;;;;7296652;19;140960;-84
2022/04/24 08:50:45;;;;;;;11.43;5.80;;;;;;;;;;7299139;19;141843;-84
2022/04/24 08:53:56;;;;;;;9.20;5.93;;;;;;;;;;7297521;19;140905;-80
2022/04/24 08:56:23;;;;;;;10.75;5.80;;;;;;;;;;7298392;19;140723;-79
2022/04/24 08:58:50;;;;;;;8.98;5.90;;;;;;;;;;7295932;19;140673;-80
2022/04/24 09:01:37;;;;;;;9.10;5.68;;;;;;;;;;7296912;19;140808;-79
2022/04/24 09:04:12;;;;;;;10.25;6.05;;;;;;;;;;7296430;19;141243;-75
2022/04/24 09:06:41;;;;;;;7.63;5.32;;;;;;;;;;7297842;19;140871;-76
2022/04/24 09:09:08;;;;;;;10.63;5.90;;;;;;;;;;7297840;19;140913;-74
2022/04/24 09:11:35;;;;;;;8.90;5.40;;;;;;;;;;7297773;19;141418;-75
2022/04/24 09:14:15;;;;;;;8.20;5.80;;;;;;;;;;7296886;19;141644;-75
2022/04/24 09:16:53;;;;;;;8.68;6.00;;;;;;;;;;7297283;19;141411;-75
2022/04/24 09:19:23;;;;;;;9.27;5.80;;;;;;;;;;7299846;19;140635;-75
2022/04/24 09:21:52;;;;;;;10.32;5.80;;;;;;;;;;7297848;19;140790;-76
2022/04/24 09:24:20;;;;;;;9.88;5.68;;;;;;;;;;7296660;19;141286;-78
2022/04/24 09:26:55;;;;;;;10.02;5.75;;;;;;;;;;7297423;19;141149;-77
2022/04/24 09:29:23;;;;;;;8.65;5.97;;;;;;;;;;7297044;19;141428;-76
2022/04/24 09:31:51;;;;;;;9.30;6.32;;;;;;;;;;7297784;19;140883;-75
2022/04/24 09:34:20;;;;;;;10.70;6.65;;;;;;;;;;7297439;19;142268;-76
2022/04/24 09:37:02;;;;;;;9.73;6.53;;;;;;;;;;7296755;19;141045;-77
2022/04/24 09:39:34;;;;;;;9.40;7.07;;;;;;;;;;7297443;19;140816;-76
2022/04/24 09:42:03;;;;;;;10.43;7.47;;;;;;;;;;7297345;19;140848;-75
2022/04/24 09:44:41;;;;;;;10.65;7.45;;;;;;;;;;7295953;19;140517;-75
2022/04/24 09:47:29;;;;;;;11.35;7.82;;;;;;;;;;7296118;19;142005;-75
2022/04/24 09:49:59;;;;;;;11.10;7.75;;;;;;;;;;7295838;19;140589;-76
2022/04/24 09:53:12;;;;;;;11.38;7.90;;;;;;;;;;7296062;19;141578;-80
2022/04/24 09:55:51;;;;;;;10.45;7.53;;;;;;;;;;7296889;19;141619;-77
2022/04/24 09:58:21;;;;;;;11.25;7.38;;;;;;;;;;7293626;19;141315;-76
2022/04/24 10:00:51;;;;;;;11.20;7.30;;;;;;;;;;7297136;19;141434;-77
2022/04/24 10:03:39;;;;;;;11.50;7.47;;;;;;;;;;7296613;19;141040;-79
2022/04/24 10:06:09;;;;;;;10.63;7.23;;;;;;;;;;7297412;19;140967;-77
2022/04/24 10:12:20;;;;;;;9.20;6.80;;;;;;;;;;7297486;19;140636;-76
2022/04/24 10:19:30;;;;;;;10.45;6.70;;;;;;;;;;7293362;19;141167;-77
2022/04/24 10:23:01;;;;;;;9.60;6.73;;;;;;;;;;7293589;19;140990;-78
2022/04/24 10:25:48;;;;;;;8.68;6.57;;;;;;;;;;7294919;19;140711;-77
2022/04/24 10:28:19;;;;;;;10.35;6.72;;;;;;;;;;7290910;19;141728;-77
2022/04/24 10:31:52;;;;;;;10.90;7.13;;;;;;;;;;7293223;19;141365;-77
2022/04/24 10:37:47;;;;;;;9.55;6.20;;;;;;;;;;7299349;19;140955;-77
2022/04/24 10:40:17;;;;;;;12.48;6.80;;;;;;;;;;7297893;19;141299;-75
2022/04/24 10:43:05;;;;;;;13.30;6.50;;;;;;;;;;7298456;19;141438;-75
2022/04/24 10:45:44;;;;;;;9.97;6.60;;;;;;;;;;7299193;19;141148;-74
2022/04/24 10:48:19;;;;;;;9.93;6.18;;;;;;;;;;7302180;19;140797;-75
2022/04/24 10:50:48;;;;;;;11.57;6.93;;;;;;;;;;7302466;19;140745;-78
2022/04/24 10:53:16;;;;;;;9.60;6.30;;;;;;;;;;7300202;19;140975;-75
2022/04/24 10:55:44;;;;;;;10.13;6.10;;;;;;;;;;7300156;19;141098;-79
2022/04/24 10:58:26;;;;;;;8.10;6.00;;;;;;;;;;7298867;19;140752;-75
2022/04/24 11:04:21;;;;;;;8.93;5.75;;;;;;;;;;7300815;19;140692;-75
2022/04/24 11:07:36;;;;;;;9.77;6.00;;;;;;;;;;7299727;19;140852;-75
2022/04/24 11:10:06;;;;;;;7.80;5.53;;;;;;;;;;7297228;19;140937;-76
2022/04/24 11:12:46;;;;;;;7.93;5.70;;;;;;;;;;7299478;19;140990;-75
2022/04/24 11:15:16;;;;;;;8.80;5.75;;;;;;;;;;7300777;19;141002;-74
2022/04/24 11:17:44;;;;;;;8.52;5.40;;;;;;;;;;7301452;19;140848;-75
2022/04/24 11:20:13;;;;;;;7.93;5.50;;;;;;;;;;7301315;19;140631;-75
2022/04/24 11:22:55;;;;;;;7.80;4.83;;;;;;;;;;7299449;19;141048;-75
2022/04/24 11:25:27;;;;;;;7.37;5.33;;;;;;;;;;7299828;19;141350;-75
2022/04/24 11:27:58;;;;;;;7.18;4.90;;;;;;;;;;7299490;19;143407;-75
2022/04/24 11:30:40;;;;;;;7.18;4.95;;;;;;;;;;7299097;19;141098;-76
2022/04/24 11:33:08;;;;;;;7.00;4.80;;;;;;;;;;7301660;19;141369;-76
2022/04/24 11:35:46;;;;;;;7.77;5.00;;;;;;;;;;7298393;19;141185;-76
2022/04/24 11:38:15;;;;;;;6.95;4.53;;;;;;;;;;7300061;19;141590;-75
2022/04/24 11:40:48;;;;;;;7.82;5.18;;;;;;;;;;7298700;19;140905;-75
2022/04/24 11:43:46;;;;;;;6.68;4.75;;;;;;;;;;7297314;19;141245;-76
2022/04/24 11:53:12;;;;;;;6.38;4.53;;;;;;;;;;7300112;19;141012;-76
2022/04/24 11:56:01;;;;;;;6.45;4.60;;;;;;;;;;7298812;19;140793;-75
2022/04/24 11:58:34;;;;;;;6.20;4.40;;;;;;;;;;7297211;19;140881;-75
2022/04/24 12:01:04;;;;;;;5.57;4.35;;;;;;;;;;7298096;19;143558;-74
2022/04/24 12:03:32;;;;;;;5.15;3.85;;;;;;;;;;7298542;19;140890;-75
2022/04/24 12:06:02;;;;;;;5.43;4.00;;;;;;;;;;7298549;19;140798;-74
2022/04/24 12:08:52;;;;;;;6.00;3.90;;;;;;;;;;7299775;19;142611;-75
2022/04/24 12:11:27;;;;;;;5.38;3.97;;;;;;;;;;7297041;19;142699;-75
2022/04/24 12:14:03;;;;;;;5.40;3.85;;;;;;;;;;7297730;19;141097;-75
2022/04/24 12:16:30;;;;;;;4.80;3.93;;;;;;;;;;7298146;19;140971;-76
2022/04/24 12:19:04;;;;;;;5.22;3.78;;;;;;;;;;7297233;19;142672;-76
2022/04/24 12:21:45;;;;;;;4.93;3.58;;;;;;;;;;7298147;19;141794;-75
2022/04/24 12:24:13;;;;;;;4.90;3.90;;;;;;;;;;7299579;19;140714;-76
2022/04/24 12:26:51;;;;;;;4.55;3.70;;;;;;;;;;7297427;19;140696;-75
2022/04/24 12:29:19;;;;;;;4.93;3.83;;;;;;;;;;7297774;19;141192;-76
2022/04/24 12:31:52;;;;;;;4.70;3.57;;;;;;;;;;7298962;19;140902;-74
2022/04/24 12:34:21;;;;;;;4.90;3.43;;;;;;;;;;7297246;19;141145;-75
2022/04/24 12:36:49;;;;;;;5.25;3.70;;;;;;;;;;7299465;19;140680;-75
2022/04/24 12:39:25;;;;;;;4.78;3.58;;;;;;;;;;7301477;19;143284;-75
2022/04/24 12:41:55;;;;;;;4.23;3.33;;;;;;;;;;7309656;19;140424;-75
2022/04/24 12:44:22;;;;;;;4.27;3.40;;;;;;;;;;7304821;19;140954;-76
2022/04/24 12:47:03;;;;;;;4.03;3.10;;;;;;;;;;7301351;19;140675;-76
2022/04/24 12:49:31;;;;;;;4.47;3.45;;;;;;;;;;7300974;19;141318;-76
2022/04/24 12:51:58;;;;;;;5.45;3.50;;;;;;;;;;7300164;19;140916;-76
2022/04/24 12:54:26;;;;;;;4.20;3.25;;;;;;;;;;7296352;19;140885;-76
2022/04/24 12:56:53;;;;;;;4.03;2.92;;;;;;;;;;7297171;19;140594;-76
2022/04/24 12:59:44;;;;;;;4.30;3.22;;;;;;;;;;7296286;19;141185;-77
2022/04/24 13:02:11;;;;;;;3.60;2.80;;;;;;;;;;7295115;19;143162;-77
2022/04/24 13:04:39;;;;;;;4.97;3.43;;;;;;;;;;7296092;19;140739;-77
2022/04/24 13:07:06;;;;;;;8.38;4.07;;;;;;;;;;7296825;19;140766;-77
2022/04/24 13:09:34;;;;;;;6.93;4.40;;;;;;;;;;7296301;19;141793;-77
2022/04/24 13:12:02;;;;;;;6.90;4.78;;;;;;;;;;7297412;19;142037;-78
2022/04/24 13:14:29;;;;;;;6.50;4.78;;;;;;;;;;7295595;19;141837;-78
2022/04/24 13:19:46;;;;;;;13.00;5.60;;;;;;;;;;7297309;19;140878;-79
2022/04/24 13:22:34;;;;;;;7.17;5.23;;;;;;;;;;7297374;19;140976;-78
2022/04/24 13:25:02;;;;;;;8.83;5.00;;;;;;;;;;7295337;19;140914;-78
2022/04/24 13:27:31;;;;;;;10.77;5.53;;;;;;;;;;7298066;19;140769;-78
2022/04/24 13:30:29;;;;;;;8.57;5.55;;;;;;;;;;7294204;19;141113;-78
2022/04/24 13:32:57;;;;;;;9.18;5.05;;;;;;;;;;7294934;19;141930;-78
2022/04/24 13:35:25;;;;;;;7.97;5.20;;;;;;;;;;7297641;19;140654;-77
2022/04/24 13:40:49;;;;;;;10.15;5.00;;;;;;;;;;7296959;19;140797;-77
2022/04/24 13:43:32;;;;;;;8.27;5.27;;;;;;;;;;7295678;19;140905;-77
2022/04/24 13:45:59;;;;;;;9.85;5.45;;;;;;;;;;7296144;19;140605;-77
2022/04/24 13:48:27;;;;;;;8.48;5.32;;;;;;;;;;7296728;19;141437;-79
2022/04/24 13:50:55;;;;;;;8.32;5.15;;;;;;;;;;7296353;19;140772;-77
2022/04/24 13:53:24;;;;;;;7.90;5.20;;;;;;;;;;7296299;19;142564;-77
2022/04/24 13:55:52;;;;;;;7.95;5.25;;;;;;;;;;7296921;19;140855;-76
2022/04/24 13:58:20;;;;;;;6.75;4.90;;;;;;;;;;7296048;19;140747;-76
2022/04/24 14:00:53;;;;;;;7.00;4.80;;;;;;;;;;7295953;19;142322;-78
2022/04/24 14:03:25;;;;;;;6.63;4.85;;;;;;;;;;7295167;19;140839;-77
2022/04/24 14:05:54;;;;;;;6.95;5.30;;;;;;;;;;7295686;19;140929;-79
2022/04/24 14:08:39;;;;;;;9.43;5.57;;;;;;;;;;7303426;19;140694;-77
2022/04/24 14:11:09;;;;;;;7.50;5.50;;;;;;;;;;7303208;19;142515;-77
2022/04/24 14:13:36;;;;;;;7.85;5.50;;;;;;;;;;7303643;19;140929;-77
2022/04/24 14:16:05;;;;;;;7.65;5.20;;;;;;;;;;7302749;19;140641;-77
2022/04/24 14:18:45;;;;;;;9.68;5.18;;;;;;;;;;7303331;19;140746;-76
2022/04/24 14:21:12;;;;;;;8.10;5.27;;;;;;;;;;7303248;19;141366;-76
2022/04/24 14:23:44;;;;;;;8.83;5.40;;;;;;;;;;7302801;19;141386;-78
2022/04/24 14:26:39;;;;;;;8.00;5.30;;;;;;;;;;7299803;19;140843;-78
2022/04/24 14:29:29;;;;;;;8.47;6.03;;;;;;;;;;7299803;19;140644;-78
2022/04/24 14:31:57;;;;;;;10.70;5.78;;;;;;;;;;7301128;19;140603;-78
2022/04/24 14:34:37;;;;;;;8.37;5.80;;;;;;;;;;7302276;19;141297;-78
2022/04/24 14:37:31;;;;;;;8.57;5.88;;;;;;;;;;7302005;19;140863;-78
2022/04/24 14:39:58;;;;;;;8.37;5.67;;;;;;;;;;7302016;19;140795;-78
2022/04/24 14:42:38;;;;;;;6.85;5.60;;;;;;;;;;7301133;19;140647;-77
2022/04/24 14:45:06;;;;;;;7.55;5.50;;;;;;;;;;7301865;19;140705;-77
2022/04/24 14:55:56;;;;;;;7.05;5.40;;;;;;;;;;7301629;19;141664;-74
2022/04/24 14:58:26;;;;;;;6.80;5.28;;;;;;;;;;7301790;19;141277;-75
2022/04/24 15:00:53;;;;;;;11.63;5.68;;;;;;;;;;7301210;19;141079;-75
2022/04/24 15:03:25;;;;;;;8.45;5.60;;;;;;;;;;7301594;19;141331;-76
2022/04/24 15:05:54;;;;;;;10.10;5.40;;;;;;;;;;7301452;19;142905;-73
2022/04/24 15:08:31;;;;;;;8.50;5.33;;;;;;;;;;7299624;19;140990;-76
2022/04/24 15:10:58;;;;;;;7.03;5.13;;;;;;;;;;7302007;19;140759;-74
2022/04/24 15:13:25;;;;;;;7.68;5.35;;;;;;;;;;7299936;19;140561;-74
2022/04/24 15:15:52;;;;;;;7.20;5.28;;;;;;;;;;7300203;19;141288;-76
2022/04/24 15:18:25;;;;;;;6.78;4.90;;;;;;;;;;7298412;19;140663;-77